sensor_id;sensor_type;location;lat;lon;timestamp;P1;durP1;ratioP1;P2;durP2;ratioP2
66886;SDS011;67239;51.680;5.976;2023-03-01T00:01:30;9.43;;;5.93;;
66886;SDS011;67239;51.680;5.976;2023-03-01T00:03:58;7.60;;;6.30;;
66886;SDS011;67239;51.680;5.976;2023-03-01T00:06:26;8.68;;;5.95;;
66886;SDS011;67239;51.680;5.976;2023-03-01T00:08:54;9.38;;;5.60;;
66886;SDS011;67239;51.680;5.976;2023-03-01T00:11:23;9.38;;;5.32;;
66886;SDS011;67239;51.680;5.976;2023-03-01T00:13:57;8.50;;;5.75;;
66886;SDS011;67239;51.680;5.976;2023-03-01T00:16:32;8.52;;;6.75;;
66886;SDS011;67239;51.680;5.976;2023-03-01T00:19:06;6.80;;;5.50;;
66886;SDS011;67239;51.680;5.976;2023-03-01T00:21:36;8.82;;;5.38;;
66886;SDS011;67239;51.680;5.976;2023-03-01T00:24:03;8.93;;;5.47;;
66886;SDS011;67239;51.680;5.976;2023-03-01T00:26:30;7.75;;;5.45;;
66886;SDS011;67239;51.680;5.976;2023-03-01T00:28:58;7.72;;;5.97;;
66886;SDS011;67239;51.680;5.976;2023-03-01T00:31:28;8.75;;;6.25;;
66886;SDS011;67239;51.680;5.976;2023-03-01T00:33:59;9.13;;;5.43;;
66886;SDS011;67239;51.680;5.976;2023-03-01T00:36:30;8.52;;;5.05;;
66886;SDS011;67239;51.680;5.976;2023-03-01T00:39:02;7.97;;;5.07;;
66886;SDS011;67239;51.680;5.976;2023-03-01T00:41:32;9.27;;;5.80;;
66886;SDS011;67239;51.680;5.976;2023-03-01T00:44:01;8.75;;;5.57;;
66886;SDS011;67239;51.680;5.976;2023-03-01T00:46:28;10.13;;;5.90;;
66886;SDS011;67239;51.680;5.976;2023-03-01T00:48:57;8.15;;;5.25;;
66886;SDS011;67239;51.680;5.976;2023-03-01T00:51:25;10.05;;;5.85;;
66886;SDS011;67239;51.680;5.976;2023-03-01T00:53:58;9.85;;;5.97;;
66886;SDS011;67239;51.680;5.976;2023-03-01T00:56:28;9.27;;;5.90;;
66886;SDS011;67239;51.680;5.976;2023-03-01T00:58:56;10.05;;;5.53;;
66886;SDS011;67239;51.680;5.976;2023-03-01T01:01:24;12.13;;;5.63;;
66886;SDS011;67239;51.680;5.976;2023-03-01T01:06:35;8.43;;;4.60;;
66886;SDS011;67239;51.680;5.976;2023-03-01T01:09:09;8.00;;;5.35;;
66886;SDS011;67239;51.680;5.976;2023-03-01T01:11:45;7.50;;;5.25;;
66886;SDS011;67239;51.680;5.976;2023-03-01T01:14:15;8.30;;;5.40;;
66886;SDS011;67239;51.680;5.976;2023-03-01T01:16:43;9.85;;;5.57;;
66886;SDS011;67239;51.680;5.976;2023-03-01T01:19:10;9.43;;;5.43;;
66886;SDS011;67239;51.680;5.976;2023-03-01T01:21:38;10.82;;;6.00;;
66886;SDS011;67239;51.680;5.976;2023-03-01T01:24:05;8.82;;;5.90;;
66886;SDS011;67239;51.680;5.976;2023-03-01T01:26:33;8.63;;;5.70;;
66886;SDS011;67239;51.680;5.976;2023-03-01T01:29:02;8.60;;;5.20;;
66886;SDS011;67239;51.680;5.976;2023-03-01T01:31:31;7.57;;;5.30;;
66886;SDS011;67239;51.680;5.976;2023-03-01T01:34:02;9.30;;;5.38;;
66886;SDS011;67239;51.680;5.976;2023-03-01T01:36:32;11.45;;;6.07;;
66886;SDS011;67239;51.680;5.976;2023-03-01T01:39:00;9.52;;;5.47;;
66886;SDS011;67239;51.680;5.976;2023-03-01T01:41:28;8.23;;;5.13;;
66886;SDS011;67239;51.680;5.976;2023-03-01T01:46:54;8.60;;;5.70;;
66886;SDS011;67239;51.680;5.976;2023-03-01T01:57:50;9.55;;;4.95;;
66886;SDS011;67239;51.680;5.976;2023-03-01T02:00:21;8.00;;;5.10;;
66886;SDS011;67239;51.680;5.976;2023-03-01T02:02:55;8.93;;;5.70;;
66886;SDS011;67239;51.680;5.976;2023-03-01T02:08:10;8.15;;;5.00;;
66886;SDS011;67239;51.680;5.976;2023-03-01T02:10:40;10.27;;;5.20;;
66886;SDS011;67239;51.680;5.976;2023-03-01T02:13:09;13.23;;;5.80;;
66886;SDS011;67239;51.680;5.976;2023-03-01T02:15:38;9.40;;;5.93;;
66886;SDS011;67239;51.680;5.976;2023-03-01T02:18:07;10.32;;;5.85;;
66886;SDS011;67239;51.680;5.976;2023-03-01T02:20:54;7.70;;;5.28;;
66886;SDS011;67239;51.680;5.976;2023-03-01T02:23:55;8.80;;;5.38;;
66886;SDS011;67239;51.680;5.976;2023-03-01T02:26:29;10.00;;;5.40;;
66886;SDS011;67239;51.680;5.976;2023-03-01T02:29:08;8.65;;;5.18;;
66886;SDS011;67239;51.680;5.976;2023-03-01T02:31:35;9.50;;;5.32;;
66886;SDS011;67239;51.680;5.976;2023-03-01T02:34:18;9.60;;;6.57;;
66886;SDS011;67239;51.680;5.976;2023-03-01T02:36:53;10.95;;;6.10;;
66886;SDS011;67239;51.680;5.976;2023-03-01T02:39:28;9.88;;;5.03;;
66886;SDS011;67239;51.680;5.976;2023-03-01T02:42:00;10.70;;;6.22;;
66886;SDS011;67239;51.680;5.976;2023-03-01T02:44:30;8.80;;;5.80;;
66886;SDS011;67239;51.680;5.976;2023-03-01T02:46:58;11.20;;;6.00;;
66886;SDS011;67239;51.680;5.976;2023-03-01T02:49:32;9.10;;;5.50;;
66886;SDS011;67239;51.680;5.976;2023-03-01T02:55:16;6.93;;;4.90;;
66886;SDS011;67239;51.680;5.976;2023-03-01T02:57:45;8.07;;;5.18;;
66886;SDS011;67239;51.680;5.976;2023-03-01T03:00:21;10.50;;;5.35;;
66886;SDS011;67239;51.680;5.976;2023-03-01T03:02:54;9.77;;;5.03;;
66886;SDS011;67239;51.680;5.976;2023-03-01T03:05:25;10.48;;;5.80;;
66886;SDS011;67239;51.680;5.976;2023-03-01T03:07:58;8.48;;;5.50;;
66886;SDS011;67239;51.680;5.976;2023-03-01T03:10:33;9.35;;;5.65;;
66886;SDS011;67239;51.680;5.976;2023-03-01T03:13:12;9.65;;;5.78;;
66886;SDS011;67239;51.680;5.976;2023-03-01T03:15:42;9.38;;;5.57;;
66886;SDS011;67239;51.680;5.976;2023-03-01T03:18:15;9.80;;;5.45;;
66886;SDS011;67239;51.680;5.976;2023-03-01T03:20:44;8.40;;;5.25;;
66886;SDS011;67239;51.680;5.976;2023-03-01T03:23:12;8.82;;;6.05;;
66886;SDS011;67239;51.680;5.976;2023-03-01T03:25:40;9.68;;;6.05;;
66886;SDS011;67239;51.680;5.976;2023-03-01T03:28:07;10.95;;;5.57;;
66886;SDS011;67239;51.680;5.976;2023-03-01T03:30:38;13.40;;;5.72;;
66886;SDS011;67239;51.680;5.976;2023-03-01T03:33:07;9.57;;;5.75;;
66886;SDS011;67239;51.680;5.976;2023-03-01T03:35:46;10.32;;;5.93;;
66886;SDS011;67239;51.680;5.976;2023-03-01T03:38:17;10.35;;;6.57;;
66886;SDS011;67239;51.680;5.976;2023-03-01T03:40:49;12.35;;;6.13;;
66886;SDS011;67239;51.680;5.976;2023-03-01T03:43:31;11.88;;;6.68;;
66886;SDS011;67239;51.680;5.976;2023-03-01T03:46:01;11.30;;;6.32;;
66886;SDS011;67239;51.680;5.976;2023-03-01T03:48:36;8.48;;;5.88;;
66886;SDS011;67239;51.680;5.976;2023-03-01T03:51:07;11.60;;;6.28;;
66886;SDS011;67239;51.680;5.976;2023-03-01T03:53:38;11.65;;;6.78;;
66886;SDS011;67239;51.680;5.976;2023-03-01T03:56:05;10.82;;;6.28;;
66886;SDS011;67239;51.680;5.976;2023-03-01T03:58:33;8.50;;;6.15;;
66886;SDS011;67239;51.680;5.976;2023-03-01T04:01:00;13.40;;;6.13;;
66886;SDS011;67239;51.680;5.976;2023-03-01T04:03:29;9.15;;;6.60;;
66886;SDS011;67239;51.680;5.976;2023-03-01T04:05:59;8.20;;;5.68;;
66886;SDS011;67239;51.680;5.976;2023-03-01T04:08:27;9.80;;;6.38;;
66886;SDS011;67239;51.680;5.976;2023-03-01T04:11:02;11.30;;;6.38;;
66886;SDS011;67239;51.680;5.976;2023-03-01T04:13:50;13.43;;;6.85;;
66886;SDS011;67239;51.680;5.976;2023-03-01T04:16:21;9.77;;;6.43;;
66886;SDS011;67239;51.680;5.976;2023-03-01T04:18:48;10.95;;;6.57;;
66886;SDS011;67239;51.680;5.976;2023-03-01T04:21:16;9.60;;;6.32;;
66886;SDS011;67239;51.680;5.976;2023-03-01T04:23:43;10.90;;;6.65;;
66886;SDS011;67239;51.680;5.976;2023-03-01T04:26:10;9.23;;;6.78;;
66886;SDS011;67239;51.680;5.976;2023-03-01T04:28:40;11.15;;;6.93;;
66886;SDS011;67239;51.680;5.976;2023-03-01T04:31:13;10.68;;;6.70;;
66886;SDS011;67239;51.680;5.976;2023-03-01T04:33:46;12.15;;;6.65;;
66886;SDS011;67239;51.680;5.976;2023-03-01T04:36:18;12.50;;;6.68;;
66886;SDS011;67239;51.680;5.976;2023-03-01T04:38:49;12.80;;;6.97;;
66886;SDS011;67239;51.680;5.976;2023-03-01T04:41:17;11.82;;;7.18;;
66886;SDS011;67239;51.680;5.976;2023-03-01T04:43:46;13.45;;;7.25;;
66886;SDS011;67239;51.680;5.976;2023-03-01T04:46:14;9.60;;;6.60;;
66886;SDS011;67239;51.680;5.976;2023-03-01T04:48:44;10.82;;;7.38;;
66886;SDS011;67239;51.680;5.976;2023-03-01T04:51:13;11.52;;;6.90;;
66886;SDS011;67239;51.680;5.976;2023-03-01T04:53:42;11.60;;;6.88;;
66886;SDS011;67239;51.680;5.976;2023-03-01T04:56:10;11.80;;;6.38;;
66886;SDS011;67239;51.680;5.976;2023-03-01T04:58:40;11.10;;;6.90;;
66886;SDS011;67239;51.680;5.976;2023-03-01T05:01:09;9.77;;;6.45;;
66886;SDS011;67239;51.680;5.976;2023-03-01T05:03:47;13.27;;;7.55;;
66886;SDS011;67239;51.680;5.976;2023-03-01T05:06:17;12.95;;;6.93;;
66886;SDS011;67239;51.680;5.976;2023-03-01T05:08:46;10.90;;;7.18;;
66886;SDS011;67239;51.680;5.976;2023-03-01T05:11:13;12.98;;;6.97;;
66886;SDS011;67239;51.680;5.976;2023-03-01T05:13:41;11.70;;;6.72;;
66886;SDS011;67239;51.680;5.976;2023-03-01T05:16:08;11.73;;;7.22;;
66886;SDS011;67239;51.680;5.976;2023-03-01T05:18:38;10.82;;;7.15;;
66886;SDS011;67239;51.680;5.976;2023-03-01T05:21:09;15.55;;;7.18;;
66886;SDS011;67239;51.680;5.976;2023-03-01T05:23:39;10.15;;;6.78;;
66886;SDS011;67239;51.680;5.976;2023-03-01T05:26:07;13.18;;;7.38;;
66886;SDS011;67239;51.680;5.976;2023-03-01T05:28:53;10.32;;;6.60;;
66886;SDS011;67239;51.680;5.976;2023-03-01T05:31:25;9.15;;;6.15;;
66886;SDS011;67239;51.680;5.976;2023-03-01T05:33:52;12.20;;;6.97;;
66886;SDS011;67239;51.680;5.976;2023-03-01T05:36:20;11.82;;;7.20;;
66886;SDS011;67239;51.680;5.976;2023-03-01T05:38:47;13.15;;;6.65;;
66886;SDS011;67239;51.680;5.976;2023-03-01T05:41:14;12.40;;;7.07;;
66886;SDS011;67239;51.680;5.976;2023-03-01T05:43:43;11.50;;;7.45;;
66886;SDS011;67239;51.680;5.976;2023-03-01T05:46:11;13.27;;;6.88;;
66886;SDS011;67239;51.680;5.976;2023-03-01T05:48:40;10.68;;;7.05;;
66886;SDS011;67239;51.680;5.976;2023-03-01T05:51:07;11.80;;;7.18;;
66886;SDS011;67239;51.680;5.976;2023-03-01T05:53:34;15.75;;;6.93;;
66886;SDS011;67239;51.680;5.976;2023-03-01T05:56:03;13.77;;;7.72;;
66886;SDS011;67239;51.680;5.976;2023-03-01T05:58:33;11.35;;;6.35;;
66886;SDS011;67239;51.680;5.976;2023-03-01T06:01:00;13.05;;;6.82;;
66886;SDS011;67239;51.680;5.976;2023-03-01T06:03:27;13.73;;;7.50;;
66886;SDS011;67239;51.680;5.976;2023-03-01T06:05:57;10.80;;;7.00;;
66886;SDS011;67239;51.680;5.976;2023-03-01T06:08:25;14.00;;;8.30;;
66886;SDS011;67239;51.680;5.976;2023-03-01T06:10:54;16.38;;;7.63;;
66886;SDS011;67239;51.680;5.976;2023-03-01T06:13:21;13.75;;;7.57;;
66886;SDS011;67239;51.680;5.976;2023-03-01T06:15:50;16.42;;;8.00;;
66886;SDS011;67239;51.680;5.976;2023-03-01T06:18:17;9.75;;;6.57;;
66886;SDS011;67239;51.680;5.976;2023-03-01T06:20:44;11.77;;;7.80;;
66886;SDS011;67239;51.680;5.976;2023-03-01T06:23:11;8.77;;;6.57;;
66886;SDS011;67239;51.680;5.976;2023-03-01T06:25:38;10.23;;;6.15;;
66886;SDS011;67239;51.680;5.976;2023-03-01T06:28:05;10.10;;;6.78;;
66886;SDS011;67239;51.680;5.976;2023-03-01T06:30:32;11.93;;;6.70;;
66886;SDS011;67239;51.680;5.976;2023-03-01T06:32:59;13.82;;;7.60;;
66886;SDS011;67239;51.680;5.976;2023-03-01T06:35:29;9.93;;;6.60;;
66886;SDS011;67239;51.680;5.976;2023-03-01T06:37:58;10.75;;;6.93;;
66886;SDS011;67239;51.680;5.976;2023-03-01T06:40:27;13.93;;;7.43;;
66886;SDS011;67239;51.680;5.976;2023-03-01T06:42:56;12.02;;;6.65;;
66886;SDS011;67239;51.680;5.976;2023-03-01T06:45:24;11.07;;;7.00;;
66886;SDS011;67239;51.680;5.976;2023-03-01T06:47:51;11.05;;;6.88;;
66886;SDS011;67239;51.680;5.976;2023-03-01T06:50:18;11.20;;;7.32;;
66886;SDS011;67239;51.680;5.976;2023-03-01T06:52:45;9.85;;;5.80;;
66886;SDS011;67239;51.680;5.976;2023-03-01T06:55:12;11.80;;;7.13;;
66886;SDS011;67239;51.680;5.976;2023-03-01T06:57:40;13.07;;;7.28;;
66886;SDS011;67239;51.680;5.976;2023-03-01T07:00:07;13.55;;;7.75;;
66886;SDS011;67239;51.680;5.976;2023-03-01T07:02:35;13.13;;;6.88;;
66886;SDS011;67239;51.680;5.976;2023-03-01T07:05:02;9.98;;;6.57;;
66886;SDS011;67239;51.680;5.976;2023-03-01T07:07:30;10.55;;;6.90;;
66886;SDS011;67239;51.680;5.976;2023-03-01T07:09:57;12.75;;;6.90;;
66886;SDS011;67239;51.680;5.976;2023-03-01T07:12:24;12.15;;;6.85;;
66886;SDS011;67239;51.680;5.976;2023-03-01T07:14:51;11.05;;;7.00;;
66886;SDS011;67239;51.680;5.976;2023-03-01T07:17:18;9.82;;;6.57;;
66886;SDS011;67239;51.680;5.976;2023-03-01T07:19:46;11.13;;;7.05;;
66886;SDS011;67239;51.680;5.976;2023-03-01T07:22:13;11.63;;;7.05;;
66886;SDS011;67239;51.680;5.976;2023-03-01T07:24:40;11.05;;;6.97;;
66886;SDS011;67239;51.680;5.976;2023-03-01T07:27:09;13.75;;;7.03;;
66886;SDS011;67239;51.680;5.976;2023-03-01T07:29:36;15.25;;;6.95;;
66886;SDS011;67239;51.680;5.976;2023-03-01T07:32:04;10.88;;;7.28;;
66886;SDS011;67239;51.680;5.976;2023-03-01T07:34:32;11.07;;;6.85;;
66886;SDS011;67239;51.680;5.976;2023-03-01T07:37:00;9.85;;;6.90;;
66886;SDS011;67239;51.680;5.976;2023-03-01T07:39:27;12.60;;;6.95;;
66886;SDS011;67239;51.680;5.976;2023-03-01T07:41:54;12.38;;;7.40;;
66886;SDS011;67239;51.680;5.976;2023-03-01T07:44:21;10.77;;;7.22;;
66886;SDS011;67239;51.680;5.976;2023-03-01T07:46:49;11.98;;;6.28;;
66886;SDS011;67239;51.680;5.976;2023-03-01T07:49:15;13.23;;;7.95;;
66886;SDS011;67239;51.680;5.976;2023-03-01T07:51:42;10.98;;;6.80;;
66886;SDS011;67239;51.680;5.976;2023-03-01T07:54:10;11.63;;;7.28;;
66886;SDS011;67239;51.680;5.976;2023-03-01T07:56:37;9.45;;;6.65;;
66886;SDS011;67239;51.680;5.976;2023-03-01T07:59:04;11.73;;;7.18;;
66886;SDS011;67239;51.680;5.976;2023-03-01T08:01:31;13.13;;;7.65;;
66886;SDS011;67239;51.680;5.976;2023-03-01T08:03:58;11.68;;;7.35;;
66886;SDS011;67239;51.680;5.976;2023-03-01T08:06:25;12.10;;;6.82;;
66886;SDS011;67239;51.680;5.976;2023-03-01T08:08:55;10.38;;;7.43;;
66886;SDS011;67239;51.680;5.976;2023-03-01T08:11:23;10.63;;;6.68;;
66886;SDS011;67239;51.680;5.976;2023-03-01T08:13:50;10.48;;;7.40;;
66886;SDS011;67239;51.680;5.976;2023-03-01T08:16:19;9.43;;;6.90;;
66886;SDS011;67239;51.680;5.976;2023-03-01T08:18:46;9.43;;;7.10;;
66886;SDS011;67239;51.680;5.976;2023-03-01T08:21:14;9.90;;;7.40;;
66886;SDS011;67239;51.680;5.976;2023-03-01T08:23:44;10.93;;;6.88;;
66886;SDS011;67239;51.680;5.976;2023-03-01T08:26:13;12.45;;;7.07;;
66886;SDS011;67239;51.680;5.976;2023-03-01T08:28:45;9.60;;;6.88;;
66886;SDS011;67239;51.680;5.976;2023-03-01T08:31:18;9.45;;;7.00;;
66886;SDS011;67239;51.680;5.976;2023-03-01T08:33:54;11.63;;;6.90;;
66886;SDS011;67239;51.680;5.976;2023-03-01T08:36:24;9.35;;;6.80;;
66886;SDS011;67239;51.680;5.976;2023-03-01T08:38:58;8.20;;;6.40;;
66886;SDS011;67239;51.680;5.976;2023-03-01T08:41:25;8.63;;;6.30;;
66886;SDS011;67239;51.680;5.976;2023-03-01T08:43:53;7.60;;;6.07;;
66886;SDS011;67239;51.680;5.976;2023-03-01T08:46:28;9.95;;;6.18;;
66886;SDS011;67239;51.680;5.976;2023-03-01T08:48:58;7.75;;;6.07;;
66886;SDS011;67239;51.680;5.976;2023-03-01T08:51:25;8.63;;;5.57;;
66886;SDS011;67239;51.680;5.976;2023-03-01T08:53:53;8.50;;;5.93;;
66886;SDS011;67239;51.680;5.976;2023-03-01T08:56:20;7.25;;;5.63;;
66886;SDS011;67239;51.680;5.976;2023-03-01T08:58:48;8.13;;;5.75;;
66886;SDS011;67239;51.680;5.976;2023-03-01T09:01:16;7.93;;;5.82;;
66886;SDS011;67239;51.680;5.976;2023-03-01T09:03:45;7.07;;;5.65;;
66886;SDS011;67239;51.680;5.976;2023-03-01T09:06:14;7.70;;;5.80;;
66886;SDS011;67239;51.680;5.976;2023-03-01T09:08:43;8.95;;;5.65;;
66886;SDS011;67239;51.680;5.976;2023-03-01T09:11:14;7.38;;;5.68;;
66886;SDS011;67239;51.680;5.976;2023-03-01T09:13:45;8.40;;;6.05;;
66886;SDS011;67239;51.680;5.976;2023-03-01T09:16:15;8.88;;;5.43;;
66886;SDS011;67239;51.680;5.976;2023-03-01T09:18:48;9.75;;;5.95;;
66886;SDS011;67239;51.680;5.976;2023-03-01T09:21:21;9.35;;;5.85;;
66886;SDS011;67239;51.680;5.976;2023-03-01T09:24:06;7.90;;;5.80;;
66886;SDS011;67239;51.680;5.976;2023-03-01T09:26:40;8.80;;;5.90;;
66886;SDS011;67239;51.680;5.976;2023-03-01T09:29:08;8.80;;;5.88;;
66886;SDS011;67239;51.680;5.976;2023-03-01T09:31:36;8.50;;;6.03;;
66886;SDS011;67239;51.680;5.976;2023-03-01T09:34:03;8.85;;;6.30;;
66886;SDS011;67239;51.680;5.976;2023-03-01T09:36:31;8.68;;;6.07;;
66886;SDS011;67239;51.680;5.976;2023-03-01T09:39:00;10.35;;;6.30;;
66886;SDS011;67239;51.680;5.976;2023-03-01T09:41:54;8.73;;;6.18;;
66886;SDS011;67239;51.680;5.976;2023-03-01T09:44:31;6.72;;;5.75;;
66886;SDS011;67239;51.680;5.976;2023-03-01T09:47:22;8.80;;;5.53;;
66886;SDS011;67239;51.680;5.976;2023-03-01T09:49:58;10.27;;;6.18;;
66886;SDS011;67239;51.680;5.976;2023-03-01T09:52:34;9.25;;;6.53;;
66886;SDS011;67239;51.680;5.976;2023-03-01T09:55:13;9.45;;;6.35;;
66886;SDS011;67239;51.680;5.976;2023-03-01T09:57:56;9.23;;;5.40;;
66886;SDS011;67239;51.680;5.976;2023-03-01T10:00:59;8.18;;;5.90;;
66886;SDS011;67239;51.680;5.976;2023-03-01T10:03:53;11.45;;;5.75;;
66886;SDS011;67239;51.680;5.976;2023-03-01T10:06:56;8.15;;;5.57;;
66886;SDS011;67239;51.680;5.976;2023-03-01T10:09:44;8.52;;;6.20;;
66886;SDS011;67239;51.680;5.976;2023-03-01T10:12:17;8.23;;;5.85;;
66886;SDS011;67239;51.680;5.976;2023-03-01T10:18:02;10.43;;;5.82;;
66886;SDS011;67239;51.680;5.976;2023-03-01T10:20:46;8.45;;;5.78;;
66886;SDS011;67239;51.680;5.976;2023-03-01T10:23:28;8.00;;;5.88;;
66886;SDS011;67239;51.680;5.976;2023-03-01T10:29:06;7.72;;;5.30;;
66886;SDS011;67239;51.680;5.976;2023-03-01T10:31:47;7.95;;;5.65;;
66886;SDS011;67239;51.680;5.976;2023-03-01T10:34:21;8.25;;;5.47;;
66886;SDS011;67239;51.680;5.976;2023-03-01T10:37:08;8.57;;;5.25;;
66886;SDS011;67239;51.680;5.976;2023-03-01T10:40:02;7.20;;;5.43;;
66886;SDS011;67239;51.680;5.976;2023-03-01T10:42:38;6.88;;;5.22;;
66886;SDS011;67239;51.680;5.976;2023-03-01T10:45:31;8.35;;;5.60;;
66886;SDS011;67239;51.680;5.976;2023-03-01T10:48:16;8.75;;;6.25;;
66886;SDS011;67239;51.680;5.976;2023-03-01T10:51:04;6.72;;;4.95;;
66886;SDS011;67239;51.680;5.976;2023-03-01T10:53:35;12.90;;;5.95;;
66886;SDS011;67239;51.680;5.976;2023-03-01T10:56:08;7.13;;;5.47;;
66886;SDS011;67239;51.680;5.976;2023-03-01T10:58:58;10.18;;;5.75;;
66886;SDS011;67239;51.680;5.976;2023-03-01T11:01:29;10.57;;;6.22;;
66886;SDS011;67239;51.680;5.976;2023-03-01T11:06:38;10.23;;;5.78;;
66886;SDS011;67239;51.680;5.976;2023-03-01T11:11:54;8.10;;;5.47;;
66886;SDS011;67239;51.680;5.976;2023-03-01T11:14:24;7.40;;;5.20;;
66886;SDS011;67239;51.680;5.976;2023-03-01T11:16:58;7.45;;;5.13;;
66886;SDS011;67239;51.680;5.976;2023-03-01T11:19:38;10.43;;;5.80;;
66886;SDS011;67239;51.680;5.976;2023-03-01T11:22:18;8.02;;;5.20;;
66886;SDS011;67239;51.680;5.976;2023-03-01T11:24:52;8.30;;;5.50;;
66886;SDS011;67239;51.680;5.976;2023-03-01T11:27:36;9.20;;;5.60;;
66886;SDS011;67239;51.680;5.976;2023-03-01T11:30:24;7.28;;;5.05;;
66886;SDS011;67239;51.680;5.976;2023-03-01T11:35:35;7.47;;;5.60;;
66886;SDS011;67239;51.680;5.976;2023-03-01T11:40:51;7.68;;;4.95;;
66886;SDS011;67239;51.680;5.976;2023-03-01T11:43:28;6.70;;;4.88;;
66886;SDS011;67239;51.680;5.976;2023-03-01T11:49:29;12.48;;;7.97;;
66886;SDS011;67239;51.680;5.976;2023-03-01T11:52:27;7.25;;;4.97;;
66886;SDS011;67239;51.680;5.976;2023-03-01T12:07:06;7.82;;;5.35;;
66886;SDS011;67239;51.680;5.976;2023-03-01T12:09:55;7.38;;;5.28;;
66886;SDS011;67239;51.680;5.976;2023-03-01T12:19:16;6.53;;;4.93;;
66886;SDS011;67239;51.680;5.976;2023-03-01T12:27:37;8.90;;;5.45;;
66886;SDS011;67239;51.680;5.976;2023-03-01T12:30:26;7.97;;;5.70;;
66886;SDS011;67239;51.680;5.976;2023-03-01T12:36:55;8.32;;;5.45;;
66886;SDS011;67239;51.680;5.976;2023-03-01T12:39:58;7.60;;;5.35;;
66886;SDS011;67239;51.680;5.976;2023-03-01T12:45:45;11.87;;;5.87;;
66886;SDS011;67239;51.680;5.976;2023-03-01T12:48:40;9.07;;;5.22;;
66886;SDS011;67239;51.680;5.976;2023-03-01T12:51:18;7.90;;;5.30;;
66886;SDS011;67239;51.680;5.976;2023-03-01T12:53:53;9.00;;;5.50;;
66886;SDS011;67239;51.680;5.976;2023-03-01T12:56:23;13.45;;;6.13;;
66886;SDS011;67239;51.680;5.976;2023-03-01T12:59:13;7.70;;;5.80;;
66886;SDS011;67239;51.680;5.976;2023-03-01T13:10:34;7.38;;;5.25;;
66886;SDS011;67239;51.680;5.976;2023-03-01T13:13:20;8.98;;;5.20;;
66886;SDS011;67239;51.680;5.976;2023-03-01T13:15:50;6.35;;;4.13;;
66886;SDS011;67239;51.680;5.976;2023-03-01T13:20:47;8.40;;;4.45;;
66886;SDS011;67239;51.680;5.976;2023-03-01T13:31:01;9.00;;;5.00;;
66886;SDS011;67239;51.680;5.976;2023-03-01T13:33:34;8.05;;;4.75;;
66886;SDS011;67239;51.680;5.976;2023-03-01T13:39:02;8.77;;;5.70;;
66886;SDS011;67239;51.680;5.976;2023-03-01T13:41:54;8.73;;;5.45;;
66886;SDS011;67239;51.680;5.976;2023-03-01T13:46:55;7.13;;;5.00;;
66886;SDS011;67239;51.680;5.976;2023-03-01T13:50:21;8.75;;;5.85;;
66886;SDS011;67239;51.680;5.976;2023-03-01T13:52:49;7.65;;;5.35;;
66886;SDS011;67239;51.680;5.976;2023-03-01T13:58:14;7.88;;;5.45;;
66886;SDS011;67239;51.680;5.976;2023-03-01T14:00:54;7.90;;;6.07;;
66886;SDS011;67239;51.680;5.976;2023-03-01T14:03:33;8.73;;;5.80;;
66886;SDS011;67239;51.680;5.976;2023-03-01T14:06:09;8.32;;;5.63;;
66886;SDS011;67239;51.680;5.976;2023-03-01T14:08:48;8.88;;;6.13;;
66886;SDS011;67239;51.680;5.976;2023-03-01T14:17:24;9.63;;;6.47;;
66886;SDS011;67239;51.680;5.976;2023-03-01T14:22:45;7.78;;;5.47;;
66886;SDS011;67239;51.680;5.976;2023-03-01T14:27:55;10.38;;;6.20;;
66886;SDS011;67239;51.680;5.976;2023-03-01T14:30:44;9.10;;;6.15;;
66886;SDS011;67239;51.680;5.976;2023-03-01T14:33:28;10.27;;;6.70;;
66886;SDS011;67239;51.680;5.976;2023-03-01T14:36:07;8.32;;;5.90;;
66886;SDS011;67239;51.680;5.976;2023-03-01T14:38:43;8.23;;;5.88;;
66886;SDS011;67239;51.680;5.976;2023-03-01T14:43:52;11.02;;;6.15;;
66886;SDS011;67239;51.680;5.976;2023-03-01T14:49:14;9.48;;;6.88;;
66886;SDS011;67239;51.680;5.976;2023-03-01T14:52:06;11.30;;;6.55;;
66886;SDS011;67239;51.680;5.976;2023-03-01T14:54:46;9.25;;;6.45;;
66886;SDS011;67239;51.680;5.976;2023-03-01T14:57:22;9.45;;;6.70;;
66886;SDS011;67239;51.680;5.976;2023-03-01T14:59:52;10.13;;;6.57;;
66886;SDS011;67239;51.680;5.976;2023-03-01T15:02:24;8.40;;;5.63;;
66886;SDS011;67239;51.680;5.976;2023-03-01T15:04:55;8.90;;;6.50;;
66886;SDS011;67239;51.680;5.976;2023-03-01T15:07:35;8.63;;;6.53;;
66886;SDS011;67239;51.680;5.976;2023-03-01T15:10:12;10.30;;;6.82;;
66886;SDS011;67239;51.680;5.976;2023-03-01T15:12:48;10.60;;;6.80;;
66886;SDS011;67239;51.680;5.976;2023-03-01T15:15:19;9.75;;;6.95;;
66886;SDS011;67239;51.680;5.976;2023-03-01T15:17:52;10.25;;;6.93;;
66886;SDS011;67239;51.680;5.976;2023-03-01T15:20:23;9.60;;;6.45;;
66886;SDS011;67239;51.680;5.976;2023-03-01T15:22:54;10.55;;;6.55;;
66886;SDS011;67239;51.680;5.976;2023-03-01T15:25:23;10.93;;;6.43;;
66886;SDS011;67239;51.680;5.976;2023-03-01T15:27:54;10.40;;;6.30;;
66886;SDS011;67239;51.680;5.976;2023-03-01T15:30:29;11.25;;;6.80;;
66886;SDS011;67239;51.680;5.976;2023-03-01T15:47:57;9.40;;;6.97;;
66886;SDS011;67239;51.680;5.976;2023-03-01T15:50:35;10.57;;;6.50;;
66886;SDS011;67239;51.680;5.976;2023-03-01T15:53:08;9.30;;;6.00;;
66886;SDS011;67239;51.680;5.976;2023-03-01T15:58:18;8.52;;;6.00;;
66886;SDS011;67239;51.680;5.976;2023-03-01T16:00:49;8.82;;;6.25;;
66886;SDS011;67239;51.680;5.976;2023-03-01T16:03:28;10.32;;;5.47;;
66886;SDS011;67239;51.680;5.976;2023-03-01T16:05:55;10.55;;;6.15;;
66886;SDS011;67239;51.680;5.976;2023-03-01T16:08:22;8.27;;;5.53;;
66886;SDS011;67239;51.680;5.976;2023-03-01T16:10:50;10.18;;;6.07;;
66886;SDS011;67239;51.680;5.976;2023-03-01T16:13:18;8.70;;;5.80;;
66886;SDS011;67239;51.680;5.976;2023-03-01T16:15:47;7.53;;;5.15;;
66886;SDS011;67239;51.680;5.976;2023-03-01T16:18:14;10.30;;;5.57;;
66886;SDS011;67239;51.680;5.976;2023-03-01T16:20:44;9.93;;;5.22;;
66886;SDS011;67239;51.680;5.976;2023-03-01T16:23:11;7.70;;;5.20;;
66886;SDS011;67239;51.680;5.976;2023-03-01T16:25:38;7.35;;;5.25;;
66886;SDS011;67239;51.680;5.976;2023-03-01T16:28:10;11.27;;;5.68;;
66886;SDS011;67239;51.680;5.976;2023-03-01T16:30:38;7.00;;;5.32;;
66886;SDS011;67239;51.680;5.976;2023-03-01T16:33:06;9.23;;;5.35;;
66886;SDS011;67239;51.680;5.976;2023-03-01T16:35:55;7.53;;;5.57;;
66886;SDS011;67239;51.680;5.976;2023-03-01T16:38:22;8.68;;;5.55;;
66886;SDS011;67239;51.680;5.976;2023-03-01T16:40:50;9.60;;;5.75;;
66886;SDS011;67239;51.680;5.976;2023-03-01T16:43:18;6.93;;;4.93;;
66886;SDS011;67239;51.680;5.976;2023-03-01T16:45:45;7.93;;;5.47;;
66886;SDS011;67239;51.680;5.976;2023-03-01T16:48:13;6.88;;;5.15;;
66886;SDS011;67239;51.680;5.976;2023-03-01T16:50:40;10.38;;;5.00;;
66886;SDS011;67239;51.680;5.976;2023-03-01T16:53:07;8.82;;;5.28;;
66886;SDS011;67239;51.680;5.976;2023-03-01T16:55:37;8.10;;;5.40;;
66886;SDS011;67239;51.680;5.976;2023-03-01T16:58:11;6.78;;;4.97;;
66886;SDS011;67239;51.680;5.976;2023-03-01T17:00:38;12.10;;;5.72;;
66886;SDS011;67239;51.680;5.976;2023-03-01T17:03:05;8.25;;;5.35;;
66886;SDS011;67239;51.680;5.976;2023-03-01T17:05:33;8.25;;;5.53;;
66886;SDS011;67239;51.680;5.976;2023-03-01T17:08:00;8.90;;;5.25;;
66886;SDS011;67239;51.680;5.976;2023-03-01T17:10:27;7.72;;;5.05;;
66886;SDS011;67239;51.680;5.976;2023-03-01T17:12:54;9.60;;;5.40;;
66886;SDS011;67239;51.680;5.976;2023-03-01T17:15:21;8.93;;;5.68;;
66886;SDS011;67239;51.680;5.976;2023-03-01T17:17:48;7.43;;;5.10;;
66886;SDS011;67239;51.680;5.976;2023-03-01T17:20:17;8.77;;;5.70;;
66886;SDS011;67239;51.680;5.976;2023-03-01T17:22:45;7.60;;;5.68;;
66886;SDS011;67239;51.680;5.976;2023-03-01T17:25:12;8.88;;;5.57;;
66886;SDS011;67239;51.680;5.976;2023-03-01T17:27:39;7.88;;;5.28;;